KGUP/GUP METAR and TAF weather

Enter ICAO airport designator
Station Type Date Time Source
KGUP METAR 2019/05/21 20:53 UTC NOAA

KGUP 212053Z AUTO 24021G30KT 10SM BKN060 BKN070 12/M02 A2971 RMK AO2 PK WND 23031/2025 RAB1958E07 SLP004 P0000 60000 T01221017 56023


Station Type Date Time Source
KGUP Decoded METAR 2019/05/21 20:53 UTC NOAA

GALLUP MUNICIPAL AIRPORT, NM, United States (KGUP) 35-31N 108-47W 1971M
May 21, 2019 - 04:53 PM EDT / 2019.05.21 2053 UTC
Wind: from the WSW (240 degrees) at 24 MPH (21 KT) gusting to 35 MPH (30 KT):0
Visibility: 10 mile(s):0
Sky conditions: mostly cloudy
Precipitation last hour: A trace
Temperature: 54.0 F (12.2 C)
Dew Point: 28.9 F (-1.7 C)
Relative Humidity: 37%
Pressure (altimeter): 29.71 in. Hg (1006 hPa)
Pressure tendency: 0.07 inches (2.3 hPa) lower than three hours ago
ob: KGUP 212053Z AUTO 24021G30KT 10SM BKN060 BKN070 12/M02 A2971 RMK AO2 PK WND 23031/2025 RAB1958E07 SLP004 P0000 60000 T01221017 56023
cycle: 21

Station Type Date Time Source
KGUP TAF 2019/05/21 21:48 UTC NOAA

TAF
AMD KGUP 212043Z 2121/2218 23018G28KT P6SM BKN060
TEMPO 2121/2201 24025G35KT
FM220800 22018KT P6SM VCSH OVC070
FM221200 21022G30KT P6SM BKN250

Example: see airport list